Hulbert, Michigan
Current Conditions -  °F | °C
As of 10:14 AM on Friday 31 Oct 2014 (Local Time) from KERY Reporting Station
Overcast Overcast  
Wind Chill: 20°   Ceiling: 3000
Heat Index: 31°   Visibility: 10mi
Dew Point: 23°   Wind: 15mph
Humidity: 74%   Direction: 10°N
Pressure: 30.22"   Gusts: 24mph
Location:  46.35°N, 85.15°W
Report Text: KERY 311414Z AUTO 01013G21KT 10SM BKN030 OVC035 M01/M05 A3022 RMK AO2 T10071048
Loading
Personal Weather Stations






























Interactive Weather Map
Tropical Storm Tracking
New forecast layout! Learn more

10-Day Weather Forecast

Advertisements
Track Severe Weather on mobile